Home > Products > Valid Products > TAF

000
FTUS41 KBTV 142039 AAA
TAFMPV
TAF AMD
KMPV 142039Z 1421/1518 35008G18KT P6SM SKC
     FM150000 VRB03KT P6SM SKC=



000
FTUS41 KBTV 141729
TAFMSS
TAF
KMSS 141729Z 1418/1518 24008KT P6SM SKC
     FM151200 06007KT P6SM SCT250=



000
FTUS41 KBTV 141729
TAFSLK
TAF
KSLK 141729Z 1418/1518 VRB04KT P6SM SKC
     FM151500 16006KT P6SM SCT250=



000
FTUS41 KBTV 141729
TAFBTV
TAF
KBTV 141729Z 1418/1518 36008KT P6SM SCT020
     FM150000 VRB03KT P6SM SKC
     FM151400 17007KT P6SM SCT250=



000
FTUS41 KBTV 141729
TAFMPV
TAF
KMPV 141729Z 1418/1518 32008G18KT P6SM SKC
     FM150000 VRB03KT P6SM SKC=



000
FTUS41 KBTV 141729
TAFMSS
TAF
KMSS 141729Z 1418/1518 24008KT P6SM SKC
     FM151200 06007KT P6SM SCT250=



000
FTUS41 KBTV 141729
TAFBTV
TAF
KBTV 141729Z 1418/1518 36008KT P6SM SCT020
     FM150000 VRB03KT P6SM SKC
     FM151400 17007KT P6SM SCT250=



000
FTUS41 KBTV 141729
TAFMPV
TAF
KMPV 141729Z 1418/1518 32008G18KT P6SM SKC
     FM150000 VRB03KT P6SM SKC=



000
FTUS41 KBTV 141729
TAFSLK
TAF
KSLK 141729Z 1418/1518 VRB04KT P6SM SKC
     FM151500 16006KT P6SM SCT250=



000
FTUS41 KBTV 141559 AAB
TAFBTV
TAF AMD
KBTV 141559Z 1416/1512 31008KT P6SM SCT030
      TEMPO 1416/1420 3SM -SN BKN020
     FM150500 00000KT P6SM FEW200=



000
FTUS41 KBTV 141318 AAA
TAFMPV
TAF AMD
KMPV 141318Z 1413/1512 31012KT 6SM HZ SCT008
      TEMPO 1413/1416 3SM HZ BKN008
     FM141600 32010G21KT P6SM SCT150
     FM142200 31006KT P6SM FEW250
     FM150000 VRB03KT P6SM FEW200=



000
FTUS41 KBTV 141317 AAA
TAFBTV
TAF AMD
KBTV 141317Z 1413/1512 01007KT P6SM SCT010
      TEMPO 1413/1415 3SM -SN BR BKN010
     FM141500 31008KT P6SM SCT030
     FM150500 00000KT P6SM FEW200=



000
FTUS41 KBTV 141317 AAA
TAFBTV
TAF AMD
KBTV 141317Z 1413/1512 01007KT P6SM SCT010
      TEMPO 1413/1415 3SM -SN BR BKN010
     FM141500 31008KT P6SM SCT030
     FM150500 00000KT P6SM FEW200=



000
FTUS41 KBTV 141135
TAFBTV
TAF
KBTV 141135Z 1412/1512 33009KT 2SM -SHSN BLSN BR OVC015
     FM141400 31008KT P6SM SCT030
     FM150500 00000KT P6SM FEW200=



000
FTUS41 KBTV 141135
TAFMPV
TAF
KMPV 141135Z 1412/1512 29010KT 4SM BLSN OVC015
     FM141400 32010G21KT P6SM SCT150
     FM142200 31006KT P6SM FEW250
     FM150000 VRB03KT P6SM FEW200=



000
FTUS41 KBTV 141135
TAFSLK
TAF
KSLK 141135Z 1412/1512 26006KT P6SM SCT150
     FM150800 00000KT P6SM FEW250=



000
FTUS41 KBTV 141135
TAFMSS
TAF
KMSS 141135Z 1412/1512 26006KT P6SM SKC
     FM150000 21006KT P6SM FEW200=



000
FTUS41 KBTV 141135
TAFBTV
TAF
KBTV 141135Z 1412/1512 33009KT 2SM -SHSN BLSN BR OVC015
     FM141400 31008KT P6SM SCT030
     FM150500 00000KT P6SM FEW200=



000
FTUS41 KBTV 141135
TAFMSS
TAF
KMSS 141135Z 1412/1512 26006KT P6SM SKC
     FM150000 21006KT P6SM FEW200=



000
FTUS41 KBTV 141135
TAFSLK
TAF
KSLK 141135Z 1412/1512 26006KT P6SM SCT150
     FM150800 00000KT P6SM FEW250=



000
FTUS41 KBTV 141135
TAFMPV
TAF
KMPV 141135Z 1412/1512 29010KT 4SM BLSN OVC015
     FM141400 32010G21KT P6SM SCT150
     FM142200 31006KT P6SM FEW250
     FM150000 VRB03KT P6SM FEW200=



000
FTUS41 KBTV 140938 AAA
TAFSLK
TAF AMD
KSLK 140938Z 1410/1506 29007KT P6SM SCT035
     FM141800 VRB04KT P6SM FEW200=



000
FTUS41 KBTV 140938 AAA
TAFMSS
TAF AMD
KMSS 140938Z 1410/1506 29012KT P6SM FEW150
     FM141100 26006KT P6SM SKC
     FM150000 21006KT P6SM FEW200=



000
FTUS41 KBTV 140936 AAA
TAFMPV
TAF AMD
KMPV 140936Z 1410/1506 33010KT P6SM BKN020
     FM141300 32010G21KT P6SM SCT150
     FM142200 31006KT P6SM FEW250
     FM150000 VRB03KT P6SM FEW200=



000
FTUS41 KBTV 140935 AAA
TAFBTV
TAF AMD
KBTV 140935Z 1410/1506 33009KT 2SM -SHSN BR OVC015
     FM141300 31008KT P6SM SCT030
     FM142200 31004KT P6SM FEW200=



000
FTUS41 KBTV 140935 AAA
TAFBTV
TAF AMD
KBTV 140935Z 1410/1506 33009KT 2SM -SHSN BR OVC015
     FM141300 31008KT P6SM SCT030
     FM142200 31004KT P6SM FEW200=



000
FTUS41 KBTV 140536
TAFBTV
TAF
KBTV 140536Z 1406/1506 32013G20KT P6SM OVC030
     FM140900 33008KT P6SM BKN035
     FM141300 31008KT P6SM SCT030
     FM142200 31004KT P6SM FEW200=



000
FTUS41 KBTV 140536
TAFMSS
TAF
KMSS 140536Z 1406/1506 29012KT P6SM FEW150
     FM141100 26006KT P6SM SKC
     FM150000 21006KT P6SM FEW200=



000
FTUS41 KBTV 140536
TAFMPV
TAF
KMPV 140536Z 1406/1506 33010G20KT 3SM BLSN BKN020
     FM141000 32010G21KT P6SM SCT150
     FM142200 31006KT P6SM FEW250
     FM150000 VRB03KT P6SM FEW200=



000
FTUS41 KBTV 140536
TAFSLK
TAF
KSLK 140536Z 1406/1506 25006KT 5SM IC OVC015
     FM140800 29007KT 6SM IC SCT035
     FM141800 VRB04KT P6SM FEW200=



000
FTUS41 KBTV 140536
TAFBTV
TAF
KBTV 140536Z 1406/1506 32013G20KT P6SM OVC030
     FM140900 33008KT P6SM BKN035
     FM141300 31008KT P6SM SCT030
     FM142200 31004KT P6SM FEW200=



000
FTUS41 KBTV 140536
TAFMPV
TAF
KMPV 140536Z 1406/1506 33010G20KT 3SM BLSN BKN020
     FM141000 32010G21KT P6SM SCT150
     FM142200 31006KT P6SM FEW250
     FM150000 VRB03KT P6SM FEW200=



000
FTUS41 KBTV 140536
TAFSLK
TAF
KSLK 140536Z 1406/1506 25006KT 5SM IC OVC015
     FM140800 29007KT 6SM IC SCT035
     FM141800 VRB04KT P6SM FEW200=



000
FTUS41 KBTV 140536
TAFMSS
TAF
KMSS 140536Z 1406/1506 29012KT P6SM FEW150
     FM141100 26006KT P6SM SKC
     FM150000 21006KT P6SM FEW200=



000
FTUS41 KBTV 132320
TAFMPV
TAF
KMPV 132320Z 1400/1424 33011G18KT 1 1/2SM -SN BKN017 OVC022
     FM140400 32011G22KT P6SM -SHSN SCT045
     FM141000 32010G21KT P6SM SCT150
     FM142200 31006KT P6SM FEW250=



000
FTUS41 KBTV 132320
TAFSLK
TAF
KSLK 132320Z 1400/1424 25008KT 5SM IC OVC023
     FM140800 29007KT 6SM IC SCT035
     FM141800 VRB04KT P6SM FEW200=



000
FTUS41 KBTV 132320
TAFMSS
TAF
KMSS 132320Z 1400/1424 27015G22KT P6SM OVC035
     FM140200 30011G18KT P6SM SCT200
     FM142100 24007KT P6SM FEW200=



000
FTUS41 KBTV 132320
TAFMSS
TAF
KMSS 132320Z 1400/1424 27015G22KT P6SM OVC035
     FM140200 30011G18KT P6SM SCT200
     FM142100 24007KT P6SM FEW200=



000
FTUS41 KBTV 132320
TAFSLK
TAF
KSLK 132320Z 1400/1424 25008KT 5SM IC OVC023
     FM140800 29007KT 6SM IC SCT035
     FM141800 VRB04KT P6SM FEW200=



000
FTUS41 KBTV 132320
TAFBTV
TAF
KBTV 132320Z 1400/1424 30016KT P6SM OVC035
     FM140900 32011G17KT P6SM BKN025
     FM141300 31008KT P6SM SCT030
     FM142100 VRB03KT P6SM FEW250=



000
FTUS41 KBTV 132320
TAFBTV
TAF
KBTV 132320Z 1400/1424 30016KT P6SM OVC035
     FM140900 32011G17KT P6SM BKN025
     FM141300 31008KT P6SM SCT030
     FM142100 VRB03KT P6SM FEW250=



000
FTUS41 KBTV 132320
TAFMPV
TAF
KMPV 132320Z 1400/1424 33011G18KT 1 1/2SM -SN BKN017 OVC022
     FM140400 32011G22KT P6SM -SHSN SCT045
     FM141000 32010G21KT P6SM SCT150
     FM142200 31006KT P6SM FEW250=



000
FTUS41 KBTV 132015 AAA
TAFSLK
TAF AMD
KSLK 132015Z 1320/1418 27012G22KT P6SM OVC030
      TEMPO 1320/1324 3SM HZ BKN020
     FM140600 30012KT P6SM SCT015=



000
FTUS41 KBTV 132013 AAA
TAFMSS
TAF AMD
KMSS 132013Z 1320/1418 27012G22KT P6SM BKN030
     FM140600 30010KT P6SM SCT030=



000
FTUS41 KBTV 132009 AAA
TAFMPV
TAF AMD
KMPV 132009Z 1320/1418 30012G22KT P6SM OVC030
      TEMPO 1320/1324 5SM HZ BKN025
     FM140600 32012KT P6SM BKN030
     FM141200 32010KT P6SM SCT045=



000
FTUS41 KBTV 132007 AAA
TAFBTV
TAF AMD
KBTV 132007Z 1320/1418 32016KT P6SM BKN035
      TEMPO 1320/1324 BKN025
     FM141600 33009KT P6SM SCT025=



000
FTUS41 KBTV 131731
TAFBTV
TAF
KBTV 131731Z 1318/1418 32016KT P6SM BKN025
     FM141600 33009KT P6SM SCT025=



000
FTUS41 KBTV 131731
TAFMSS
TAF
KMSS 131731Z 1318/1418 27012G22KT P6SM BKN030
     FM140600 30010KT P6SM SCT030=



000
FTUS41 KBTV 131731
TAFSLK
TAF
KSLK 131731Z 1318/1418 27012G22KT P6SM OVC015
      TEMPO 1318/1322 3SM HZ
     FM140600 30012KT P6SM SCT015=



000
FTUS41 KBTV 131731
TAFMPV
TAF
KMPV 131731Z 1318/1418 33012KT P6SM BKN045
     FM141200 32010KT P6SM SCT045=



000
FTUS41 KBTV 131454 AAB
TAFSLK
TAF AMD
KSLK 131454Z 1315/1412 27007G17KT P6SM SCT015
      TEMPO 1315/1319 BKN015
     FM141100 28006KT P6SM SCT130=



000
FTUS41 KBTV 131453 AAA
TAFMSS
TAF AMD
KMSS 131453Z 1315/1412 27010G20KT P6SM BKN020
     FM132100 28015KT P6SM BKN035
     FM140700 30009KT P6SM SCT200=



000
FTUS41 KBTV 131450 AAA
TAFMPV
TAF AMD
KMPV 131450Z 1315/1412 33012KT P6SM BKN045=



000
FTUS41 KBTV 131450 AAA
TAFMPV
TAF AMD
KMPV 131450Z 1315/1412 33012KT P6SM BKN045=



000
FTUS41 KBTV 131448 AAB
TAFBTV
TAF AMD
KBTV 131448Z 1315/1412 33015KT P6SM BKN040
     FM141100 33009KT P6SM BKN140=



000
FTUS41 KBTV 131446 AAA
TAFSLK
TAF AMD
KSLK 131446Z 1315/1412 27007KT P6SM SCT015
      TEMPO 1315/1319 BKN015
     FM141100 28006KT P6SM SCT130=



000
FTUS41 KBTV 131446 AAA
TAFSLK
TAF AMD
KSLK 131446Z 1315/1412 27007KT P6SM SCT015
      TEMPO 1315/1319 BKN015
     FM141100 28006KT P6SM SCT130=



000
FTUS41 KBTV 131132
TAFBTV
TAF
KBTV 131132Z 1312/1412 34012KT P6SM SCT040
      TEMPO 1312/1314 6SM -SHSN BKN015
     FM131400 33015KT P6SM BKN040
     FM141100 33009KT P6SM BKN140=



000
FTUS41 KBTV 131132
TAFMPV
TAF
KMPV 131132Z 1312/1412 32008KT 3SM -SN BR BKN025
      TEMPO 1312/1314 1SM -SN BKN015
     FM131400 31012KT P6SM BKN045=



000
FTUS41 KBTV 131132
TAFMSS
TAF
KMSS 131132Z 1312/1412 30015G20KT P6SM BKN025
      TEMPO 1312/1314 4SM -SN BR
     FM132100 28015KT P6SM BKN035
     FM140700 30009KT P6SM SCT200=



000
FTUS41 KBTV 131132
TAFSLK
TAF
KSLK 131132Z 1312/1412 30007KT P6SM BKN025
     FM131400 28010KT P6SM BKN070
     FM141100 28006KT P6SM SCT130=



000
FTUS41 KBTV 131132
TAFMPV
TAF
KMPV 131132Z 1312/1412 32008KT 3SM -SN BR BKN025
      TEMPO 1312/1314 1SM -SN BKN015
     FM131400 31012KT P6SM BKN045=



000
FTUS41 KBTV 131132
TAFMSS
TAF
KMSS 131132Z 1312/1412 30015G20KT P6SM BKN025
      TEMPO 1312/1314 4SM -SN BR
     FM132100 28015KT P6SM BKN035
     FM140700 30009KT P6SM SCT200=



000
FTUS41 KBTV 131132
TAFBTV
TAF
KBTV 131132Z 1312/1412 34012KT P6SM SCT040
      TEMPO 1312/1314 6SM -SHSN BKN015
     FM131400 33015KT P6SM BKN040
     FM141100 33009KT P6SM BKN140=



000
FTUS41 KBTV 131132
TAFSLK
TAF
KSLK 131132Z 1312/1412 30007KT P6SM BKN025
     FM131400 28010KT P6SM BKN070
     FM141100 28006KT P6SM SCT130=



000
FTUS41 KBTV 130635 AAA
TAFSLK
TAF AMD
KSLK 130635Z 1307/1406 23012KT P6SM VCSH OVC035
      TEMPO 1307/1308 3/4SM -SN BR OVC015
     FM131000 26009KT P6SM BKN025
     FM132000 28009KT P6SM BKN040=



000
FTUS41 KBTV 130635 AAA
TAFSLK
TAF AMD
KSLK 130635Z 1307/1406 23012KT P6SM VCSH OVC035
      TEMPO 1307/1308 3/4SM -SN BR OVC015
     FM131000 26009KT P6SM BKN025
     FM132000 28009KT P6SM BKN040=



000
FTUS41 KBTV 130635 AAA
TAFMSS
TAF AMD
KMSS 130635Z 1307/1406 32011KT P6SM OVC040
     FM131100 30015KT P6SM BKN015
     FM132100 28015KT P6SM BKN025
     FM140500 29009KT P6SM BKN040=



000
FTUS41 KBTV 130635 AAA
TAFMSS
TAF AMD
KMSS 130635Z 1307/1406 32011KT P6SM OVC040
     FM131100 30015KT P6SM BKN015
     FM132100 28015KT P6SM BKN025
     FM140500 29009KT P6SM BKN040=



000
FTUS41 KBTV 130537
TAFMSS
TAF
KMSS 130537Z 1306/1406 32011KT P6SM BKN020 OVC040
     FM131100 30015KT P6SM BKN015
     FM132100 28015KT P6SM BKN025
     FM140500 29009KT P6SM BKN040=



000
FTUS41 KBTV 130537
TAFSLK
TAF
KSLK 130537Z 1306/1406 23012KT P6SM VCSH OVC025
      TEMPO 1306/1308 3/4SM -SN BR OVC015
     FM131000 26009KT P6SM BKN025
     FM132000 28009KT P6SM BKN040=



000
FTUS41 KBTV 130537
TAFMPV
TAF
KMPV 130537Z 1306/1406 VRB03KT P6SM VCSH OVC080
     FM130900 29004KT P6SM VCSH OVC025
     FM131100 30006KT P6SM BKN025
     FM131500 31009KT P6SM BKN045=



000
FTUS41 KBTV 130537
TAFBTV
TAF
KBTV 130537Z 1306/1406 19012G20KT P6SM VCSH OVC080
     FM130800 23013KT P6SM VCSH OVC030
     FM131000 28011KT P6SM OVC020
     FM131200 31013KT P6SM OVC035=



000
FTUS41 KBTV 130247 AAA
TAFSLK
TAF AMD
KSLK 130247Z 1303/1324 20011KT 2SM -SHSN BR OVC050
      TEMPO 1303/1304 1/2SM SHSN FZFG VV008
     FM130600 25013G20KT 3SM -SHSN BR OVC008
     FM130800 29010G20KT P6SM VCSH OVC015
     FM131100 28011G22KT P6SM OVC040=



000
FTUS41 KBTV 130247 AAA
TAFSLK
TAF AMD
KSLK 130247Z 1303/1324 20011KT 2SM -SHSN BR OVC050
      TEMPO 1303/1304 1/2SM SHSN FZFG VV008
     FM130600 25013G20KT 3SM -SHSN BR OVC008
     FM130800 29010G20KT P6SM VCSH OVC015
     FM131100 28011G22KT P6SM OVC040=



000
FTUS41 KBTV 122320
TAFBTV
TAF
KBTV 122320Z 1300/1324 19013G20KT P6SM SKC
     FM130400 19012KT P6SM VCSH OVC020
     FM130500 19012KT 2SM -SHSN BR OVC008
      TEMPO 1305/1307 1/2SM SHSN FZFG VV008
     FM130700 29012G22KT 6SM -SHSN OVC020
     FM130900 30012G18KT P6SM VCSH OVC035
     FM131300 31013G25KT P6SM SCT045=



000
FTUS41 KBTV 122320
TAFSLK
TAF
KSLK 122320Z 1300/1324 22011G19KT P6SM FEW040 OVC050
     FM130200 20011KT 2SM -SHSN BR OVC050
      TEMPO 1302/1303 1/4SM +SHSN FZFG VV008
     FM130600 25013G20KT 3SM -SHSN BR OVC008
     FM130800 29010G20KT P6SM VCSH OVC015
     FM131100 28011G22KT P6SM OVC040=



000
FTUS41 KBTV 122320
TAFMPV
TAF
KMPV 122320Z 1300/1324 19009KT P6SM SKC
     FM130500 18008KT 2SM -SHSN BR BKN030
      TEMPO 1305/1307 1/2SM SHSN FZFG VV008
     FM130800 VRB03KT 6SM -SHSN BR OVC030
     FM131300 31010KT P6SM BKN040=



000
FTUS41 KBTV 122320
TAFMSS
TAF
KMSS 122320Z 1300/1324 20013KT 1/4SM +SN FZFG VV008
      TEMPO 1300/1302 1/2SM SHSN FZFG OVC008
     FM130200 30014G28KT 2SM -SHSN BR OVC015
     FM130400 30014G24KT P6SM -SHSN SCT015 OVC035
     FM130900 30014G22KT P6SM OVC035=



000
FTUS41 KBTV 121959 AAA
TAFMSS
TAF AMD
KMSS 121959Z 1220/1318 20012G20KT 3/4SM -SN BR BKN020 OVC025
     FM130000 21010G18KT 1SM -SN BR OVC020
     FM130300 27012G20KT 4SM -SHSN BR OVC020
     FM130700 30018G28KT P6SM -SHSN OVC025=



000
FTUS41 KBTV 121749 AAA
TAFSLK
TAF AMD
KSLK 121749Z 1218/1318 23013G24KT 3SM -SHSN BKN025 OVC035
      TEMPO 1218/1222 1SM -SHSN OVC020
     FM130200 21012KT 1SM -SHSN BR OVC012
     FM130600 25008KT 6SM -SHSN OVC020
     FM130900 29010G16KT P6SM -SHSN OVC015
     FM131100 28012G20KT P6SM -SHSN OVC020
     FM131400 28012KT P6SM SCT025=



000
FTUS41 KBTV 121740
TAFMPV
TAF
KMPV 121740Z 1218/1318 17014KT P6SM FEW045
     FM130600 18007KT P6SM VCSH OVC060
     FM130800 19007KT 1SM -SHSN BR OVC025
     FM130900 28014G22KT 2SM -SHSN BR OVC025
     FM131000 31014G22KT 6SM -SHSN OVC025
     FM131500 31011G17KT P6SM BKN025=



000
FTUS41 KBTV 121740
TAFSLK
TAF
KSLK 121740Z 1218/1318 22015G25KT 3SM -SHSN BKN020 OVC035
     FM130200 21012KT 1SM -SHSN BR OVC012
     FM130600 25008KT 6SM -SHSN OVC020
     FM130900 29010G16KT P6SM -SHSN OVC015
     FM131100 28012G20KT P6SM -SHSN OVC020
     FM131400 28012KT P6SM SCT025=



000
FTUS41 KBTV 121740
TAFMSS
TAF
KMSS 121740Z 1218/1318 20013KT P6SM VCSH BKN080
     FM122100 20011KT 2SM -SHSN BR OVC040
     FM130000 21010KT 1SM -SN BR OVC035
     FM130200 22008KT 2SM -SHSN BR OVC020
     FM130400 27012G20KT 5SM -SHSN BR OVC020
     FM130700 30018G28KT P6SM -SHSN OVC025=



000
FTUS41 KBTV 121740
TAFBTV
TAF
KBTV 121740Z 1218/1318 19015G22KT P6SM FEW045 SCT150
     FM130200 18013KT P6SM BKN070
     FM130500 19012KT P6SM VCSH OVC050
     FM130700 29012KT 1SM -SHSN BR OVC025
     FM130800 31012G20KT P6SM -SHSN OVC020
     FM131300 31013KT P6SM VCSH BKN025=



000
FTUS41 KBTV 121740
TAFBTV
TAF
KBTV 121740Z 1218/1318 19015G22KT P6SM FEW045 SCT150
     FM130200 18013KT P6SM BKN070
     FM130500 19012KT P6SM VCSH OVC050
     FM130700 29012KT 1SM -SHSN BR OVC025
     FM130800 31012G20KT P6SM -SHSN OVC020
     FM131300 31013KT P6SM VCSH BKN025=



000
FTUS41 KBTV 121740
TAFMPV
TAF
KMPV 121740Z 1218/1318 17014KT P6SM FEW045
     FM130600 18007KT P6SM VCSH OVC060
     FM130800 19007KT 1SM -SHSN BR OVC025
     FM130900 28014G22KT 2SM -SHSN BR OVC025
     FM131000 31014G22KT 6SM -SHSN OVC025
     FM131500 31011G17KT P6SM BKN025=



000
FTUS41 KBTV 121740
TAFMSS
TAF
KMSS 121740Z 1218/1318 20013KT P6SM VCSH BKN080
     FM122100 20011KT 2SM -SHSN BR OVC040
     FM130000 21010KT 1SM -SN BR OVC035
     FM130200 22008KT 2SM -SHSN BR OVC020
     FM130400 27012G20KT 5SM -SHSN BR OVC020
     FM130700 30018G28KT P6SM -SHSN OVC025=



000
FTUS41 KBTV 121740
TAFSLK
TAF
KSLK 121740Z 1218/1318 22015G25KT 3SM -SHSN BKN020 OVC035
     FM130200 21012KT 1SM -SHSN BR OVC012
     FM130600 25008KT 6SM -SHSN OVC020
     FM130900 29010G16KT P6SM -SHSN OVC015
     FM131100 28012G20KT P6SM -SHSN OVC020
     FM131400 28012KT P6SM SCT025=



000
FTUS41 KBTV 121628 AAB
TAFSLK
TAF AMD
KSLK 121628Z 1216/1312 22007KT P6SM VCSH BKN030
      TEMPO 1216/1219 2SM -SHSN OVC025
     FM121900 22013G23KT P6SM VCSH OVC040
     FM130200 19012G22KT 1SM -SN BR BKN030
     FM130700 28010G18KT P6SM VCSH BKN020
     FM131100 29012G22KT P6SM BKN025=



000
FTUS41 KBTV 121259 AAA
TAFSLK
TAF AMD
KSLK 121259Z 1213/1312 00000KT P6SM BKN150
      TEMPO 1213/1215 BKN030
     FM121500 22007KT P6SM VCSH BKN030
     FM121900 22013G23KT P6SM VCSH OVC040
     FM130200 19012G22KT 1SM -SN BR BKN030
     FM130700 28010G18KT P6SM VCSH BKN020
     FM131100 29012G22KT P6SM BKN025=



000
FTUS41 KBTV 121125
TAFSLK
TAF
KSLK 121125Z 1212/1312 00000KT P6SM BKN150
     FM121400 22007KT P6SM VCSH BKN050
     FM121900 22013G23KT P6SM VCSH OVC040
     FM130200 19012G22KT 1SM -SN BR BKN030
     FM130700 28010G18KT P6SM VCSH BKN020
     FM131100 29012G22KT P6SM BKN025=



000
FTUS41 KBTV 121125
TAFMPV
TAF
KMPV 121125Z 1212/1312 VRB05KT P6SM FEW250
     FM121800 22008KT P6SM BKN040
     FM122200 20009KT P6SM SCT050
     FM130500 17011G20KT P6SM VCSH BKN060
     FM130900 21004KT P6SM VCSH BKN020
     FM131100 29010G18KT P6SM VCSH BKN035=



000
FTUS41 KBTV 121125
TAFMSS
TAF
KMSS 121125Z 1212/1312 19005KT P6SM BKN070
     FM121600 20008KT P6SM VCSH OVC035
     FM122200 20011G20KT 1SM -SN BR OVC050
     FM130500 31013G23KT P6SM VCSH OVC050
     FM130900 30013G24KT P6SM BKN035=



000
FTUS41 KBTV 121125
TAFBTV
TAF
KBTV 121125Z 1212/1312 00000KT P6SM FEW030
     FM121400 19007KT P6SM SCT060
     FM121700 19010G18KT P6SM BKN040
     FM130400 18014G25KT P6SM VCSH BKN040
     FM130700 20009KT P6SM VCSH OVC020
     FM130900 29010G19KT 2SM -SHSN BR OVC020
     FM131000 30011G20KT P6SM VCSH OVC020=



000
FTUS41 KBTV 121125
TAFSLK
TAF
KSLK 121125Z 1212/1312 00000KT P6SM BKN150
     FM121400 22007KT P6SM VCSH BKN050
     FM121900 22013G23KT P6SM VCSH OVC040
     FM130200 19012G22KT 1SM -SN BR BKN030
     FM130700 28010G18KT P6SM VCSH BKN020
     FM131100 29012G22KT P6SM BKN025=



000
FTUS41 KBTV 121125
TAFMSS
TAF
KMSS 121125Z 1212/1312 19005KT P6SM BKN070
     FM121600 20008KT P6SM VCSH OVC035
     FM122200 20011G20KT 1SM -SN BR OVC050
     FM130500 31013G23KT P6SM VCSH OVC050
     FM130900 30013G24KT P6SM BKN035=



000
FTUS41 KBTV 121125
TAFBTV
TAF
KBTV 121125Z 1212/1312 00000KT P6SM FEW030
     FM121400 19007KT P6SM SCT060
     FM121700 19010G18KT P6SM BKN040
     FM130400 18014G25KT P6SM VCSH BKN040
     FM130700 20009KT P6SM VCSH OVC020
     FM130900 29010G19KT 2SM -SHSN BR OVC020
     FM131000 30011G20KT P6SM VCSH OVC020=



000
FTUS41 KBTV 121125
TAFMPV
TAF
KMPV 121125Z 1212/1312 VRB05KT P6SM FEW250
     FM121800 22008KT P6SM BKN040
     FM122200 20009KT P6SM SCT050
     FM130500 17011G20KT P6SM VCSH BKN060
     FM130900 21004KT P6SM VCSH BKN020
     FM131100 29010G18KT P6SM VCSH BKN035=



000
FTUS41 KBTV 120830 AAA
TAFMPV
TAF AMD
KMPV 120830Z 1209/1306 32008KT P6SM OVC020
     FM121100 29007KT P6SM BKN140
     FM121500 20005KT P6SM SCT045
     FM121800 20007KT P6SM BKN040
     FM130500 17011G20KT P6SM VCSH BKN050=



000
FTUS41 KBTV 120538
TAFBTV
TAF
KBTV 120538Z 1206/1306 31011KT P6SM BKN030
     FM120800 30010G17KT P6SM SCT040
     FM121200 27006KT P6SM FEW250
     FM121400 20004KT P6SM SCT150
     FM121700 19010G18KT P6SM BKN050
     FM122000 18012G22KT P6SM VCSH BKN070=



000
FTUS41 KBTV 120538
TAFMSS
TAF
KMSS 120538Z 1206/1306 21007KT P6SM SKC
     FM121200 00000KT P6SM BKN050
     FM121500 19005KT P6SM BKN035
     FM121800 19006KT 3SM -SHSN BKN025
     FM122100 22011KT 1SM -SHSN OVC015
     FM130500 31013G23KT P6SM VCSH OVC045=



000
FTUS41 KBTV 120538
TAFMPV
TAF
KMPV 120538Z 1206/1306 31015G25KT P6SM OVC020
     FM120900 30010G17KT P6SM SCT025
     FM121100 29007KT P6SM BKN140
     FM121500 20005KT P6SM SCT045
     FM121800 20007KT P6SM BKN040
     FM130500 17011G20KT P6SM VCSH BKN050=



000
FTUS41 KBTV 120538
TAFSLK
TAF
KSLK 120538Z 1206/1306 22005KT P6SM SCT015
      TEMPO 1206/1208 3SM -SHSN BKN016 OVC025
     FM120800 VRB03KT P6SM BKN050
     FM121500 22007KT 6SM -SHSN BKN020
     FM121700 22009KT 2SM -SHSN BR BKN015
     FM121900 22013G23KT P6SM VCSH OVC030
     FM130000 19010G18KT P6SM VCSH BKN050
     FM130200 19012G22KT 2SM -SHSN BR BKN030
     FM130300 20012G21KT 1SM -SN BR OVC025=



000
FTUS41 KBTV 120538
TAFSLK
TAF
KSLK 120538Z 1206/1306 22005KT P6SM SCT015
      TEMPO 1206/1208 3SM -SHSN BKN016 OVC025
     FM120800 VRB03KT P6SM BKN050
     FM121500 22007KT 6SM -SHSN BKN020
     FM121700 22009KT 2SM -SHSN BR BKN015
     FM121900 22013G23KT P6SM VCSH OVC030
     FM130000 19010G18KT P6SM VCSH BKN050
     FM130200 19012G22KT 2SM -SHSN BR BKN030
     FM130300 20012G21KT 1SM -SN BR OVC025=



000
FTUS41 KBTV 120538
TAFBTV
TAF
KBTV 120538Z 1206/1306 31011KT P6SM BKN030
     FM120800 30010G17KT P6SM SCT040
     FM121200 27006KT P6SM FEW250
     FM121400 20004KT P6SM SCT150
     FM121700 19010G18KT P6SM BKN050
     FM122000 18012G22KT P6SM VCSH BKN070=



000
FTUS41 KBTV 120538
TAFMSS
TAF
KMSS 120538Z 1206/1306 21007KT P6SM SKC
     FM121200 00000KT P6SM BKN050
     FM121500 19005KT P6SM BKN035
     FM121800 19006KT 3SM -SHSN BKN025
     FM122100 22011KT 1SM -SHSN OVC015
     FM130500 31013G23KT P6SM VCSH OVC045=



000
FTUS41 KBTV 120538
TAFMPV
TAF
KMPV 120538Z 1206/1306 31015G25KT P6SM OVC020
     FM120900 30010G17KT P6SM SCT025
     FM121100 29007KT P6SM BKN140
     FM121500 20005KT P6SM SCT045
     FM121800 20007KT P6SM BKN040
     FM130500 17011G20KT P6SM VCSH BKN050=



000
FTUS41 KBTV 120233 AAA
TAFSLK
TAF AMD
KSLK 120233Z 1203/1224 VRB04KT P6SM SCT015 OVC025
      TEMPO 1203/1207 3SM -SHSN BKN016 OVC025
     FM120800 VRB03KT P6SM BKN050
     FM121500 22007KT 6SM -SHSN BKN020
     FM121700 22009KT 2SM -SHSN BR BKN015=



000
FTUS41 KBTV 120233 AAA
TAFSLK
TAF AMD
KSLK 120233Z 1203/1224 VRB04KT P6SM SCT015 OVC025
      TEMPO 1203/1207 3SM -SHSN BKN016 OVC025
     FM120800 VRB03KT P6SM BKN050
     FM121500 22007KT 6SM -SHSN BKN020
     FM121700 22009KT 2SM -SHSN BR BKN015=



000
FTUS41 KBTV 120230 AAA
TAFMSS
TAF AMD
KMSS 120230Z 1203/1224 21007KT P6SM SKC
     FM121200 00000KT P6SM BKN050
     FM121400 18004KT P6SM BKN025
     FM121500 19005KT P6SM BKN035
     FM121800 19006KT 3SM -SHSN BKN025
     FM122100 22011KT 1SM -SHSN OVC015=



000
FTUS41 KBTV 120228 AAA
TAFMPV
TAF AMD
KMPV 120228Z 1202/1224 32010G18KT 2SM -SN BKN018 OVC035
      TEMPO 1202/1206 P6SM NSW SCT018 OVC035
     FM120600 31007KT P6SM OVC050
     FM121100 VRB03KT P6SM BKN140
     FM121500 20005KT P6SM SCT045
     FM121800 20007KT P6SM BKN040=



000
FTUS41 KBTV 120222 AAA
TAFBTV
TAF AMD
KBTV 120222Z 1202/1224 31010G18KT P6SM VCSH SCT025 OVC035
     FM120600 31011KT P6SM BKN040
     FM120900 VRB03KT P6SM BKN140
     FM121500 18010KT P6SM BKN045
     FM122100 19010KT P6SM VCSH BKN035=



000
FTUS41 KBTV 120222 AAA
TAFBTV
TAF AMD
KBTV 120222Z 1202/1224 31010G18KT P6SM VCSH SCT025 OVC035
     FM120600 31011KT P6SM BKN040
     FM120900 VRB03KT P6SM BKN140
     FM121500 18010KT P6SM BKN045
     FM122100 19010KT P6SM VCSH BKN035=



000
FTUS41 KBTV 112331
TAFMSS
TAF
KMSS 112331Z 1200/1224 27011KT P6SM BKN045 OVC070
     FM120500 25006KT P6SM BKN250
     FM121200 00000KT P6SM BKN050
     FM121400 18004KT P6SM BKN025
     FM121500 19005KT P6SM BKN035
     FM121800 19006KT 3SM -SHSN BKN025
     FM122100 22011KT 1SM -SHSN OVC015=



000
FTUS41 KBTV 112331
TAFMSS
TAF
KMSS 112331Z 1200/1224 27011KT P6SM BKN045 OVC070
     FM120500 25006KT P6SM BKN250
     FM121200 00000KT P6SM BKN050
     FM121400 18004KT P6SM BKN025
     FM121500 19005KT P6SM BKN035
     FM121800 19006KT 3SM -SHSN BKN025
     FM122100 22011KT 1SM -SHSN OVC015=



000
FTUS41 KBTV 112331
TAFSLK
TAF
KSLK 112331Z 1200/1224 27008KT P6SM VCSH OVC025
     FM120300 26005KT P6SM OVC035
     FM120600 25004KT P6SM OVC025
     FM120800 VRB03KT P6SM BKN050
     FM121500 22007KT 6SM -SHSN BKN020
     FM121700 22009KT 2SM -SHSN BR BKN015=



000
FTUS41 KBTV 112331
TAFBTV
TAF
KBTV 112331Z 1200/1224 31010G18KT P6SM VCSH SCT025 OVC035
     FM120300 31011KT P6SM OVC040
     FM120900 VRB03KT P6SM BKN140
     FM121500 18010KT P6SM BKN045
     FM122100 19010KT P6SM VCSH BKN035=



000
FTUS41 KBTV 112331
TAFBTV
TAF
KBTV 112331Z 1200/1224 31010G18KT P6SM VCSH SCT025 OVC035
     FM120300 31011KT P6SM OVC040
     FM120900 VRB03KT P6SM BKN140
     FM121500 18010KT P6SM BKN045
     FM122100 19010KT P6SM VCSH BKN035=



000
FTUS41 KBTV 112331
TAFSLK
TAF
KSLK 112331Z 1200/1224 27008KT P6SM VCSH OVC025
     FM120300 26005KT P6SM OVC035
     FM120600 25004KT P6SM OVC025
     FM120800 VRB03KT P6SM BKN050
     FM121500 22007KT 6SM -SHSN BKN020
     FM121700 22009KT 2SM -SHSN BR BKN015=



000
FTUS41 KBTV 112331
TAFMPV
TAF
KMPV 112331Z 1200/1224 30010G18KT P6SM SCT020 OVC040
      TEMPO 1200/1204 3SM -SHSN OVC020
     FM120600 31007KT P6SM OVC050
     FM121100 VRB03KT P6SM BKN140
     FM121500 20005KT P6SM SCT045
     FM121800 20007KT P6SM BKN040=



000
FTUS41 KBTV 112331
TAFMPV
TAF
KMPV 112331Z 1200/1224 30010G18KT P6SM SCT020 OVC040
      TEMPO 1200/1204 3SM -SHSN OVC020
     FM120600 31007KT P6SM OVC050
     FM121100 VRB03KT P6SM BKN140
     FM121500 20005KT P6SM SCT045
     FM121800 20007KT P6SM BKN040=



    US Dept of Commerce
    National Oceanic and Atmospheric Administration
    National Weather Service
    1325 East West Highway
    Silver Spring, MD 20910
    Page Author: NWS Internet Services Team
Disclaimer
Information Quality
Credits
Glossary
Privacy Policy
Freedom of Information Act (FOIA)
About Us
Career Opportunities